Time;durP1;ratioP1;P1;durP2;ratioP2;P2;SDS_P1;SDS_P2;PMS_P1;PMS_P2;Temp;Humidity;BMP_temperature;BMP_pressure;BME280_temperature;BME280_humidity;BME280_pressure;Samples;Min_cycle;Max_cycle;Signal;HPM_P1;HPM_P2
2023/09/04 00:01:30;;;;;;;6.23;2.77;;;;;;;15.11;100.00;100854.19;1375955;90;22237;-76
2023/09/04 00:03:56;;;;;;;4.80;2.70;;;;;;;15.14;100.00;100847.19;1375677;90;21342;-76
2023/09/04 00:06:22;;;;;;;3.80;3.27;;;;;;;15.13;100.00;100849.50;1361013;91;22222;-76
2023/09/04 00:08:48;;;;;;;3.30;2.37;;;;;;;15.15;100.00;100844.84;1381528;90;21541;-77
2023/09/04 00:11:15;;;;;;;5.00;3.60;;;;;;;15.14;100.00;100845.86;1375092;90;21378;-76
2023/09/04 00:13:41;;;;;;;7.63;3.17;;;;;;;15.11;100.00;100850.19;1361148;91;21494;-77
2023/09/04 00:16:08;;;;;;;6.80;3.03;;;;;;;15.12;100.00;100861.17;1380688;90;22237;-77
2023/09/04 00:18:34;;;;;;;5.23;3.10;;;;;;;15.11;100.00;100855.52;1489019;90;22414;-77
2023/09/04 00:21:00;;;;;;;7.07;2.80;;;;;;;15.08;100.00;100859.35;1375682;90;22222;-77
2023/09/04 00:23:26;;;;;;;4.47;2.57;;;;;;;15.07;100.00;100860.84;1375511;90;21363;-77
2023/09/04 00:25:54;;;;;;;3.70;3.10;;;;;;;15.05;100.00;100863.69;1381153;89;22258;-77
2023/09/04 00:28:20;;;;;;;3.80;2.50;;;;;;;15.01;100.00;100866.84;1374520;90;21586;-77
2023/09/04 00:30:47;;;;;;;4.70;2.93;;;;;;;15.02;100.00;100873.85;1375731;90;21364;-77
2023/09/04 00:33:14;;;;;;;7.60;2.90;;;;;;;15.01;100.00;100874.83;1380379;90;21379;-77
2023/09/04 00:35:40;;;;;;;6.60;2.40;;;;;;;15.01;100.00;100872.99;1375379;90;22450;-77
2023/09/04 00:38:06;;;;;;;6.20;2.60;;;;;;;15.06;100.00;100869.84;1361628;91;21389;-76
2023/09/04 00:40:32;;;;;;;3.83;3.43;;;;;;;15.07;100.00;100882.16;1376049;90;21364;-77
2023/09/04 00:42:58;;;;;;;3.97;2.77;;;;;;;15.08;100.00;100879.85;1375856;90;21356;-76
2023/09/04 00:45:25;;;;;;;3.87;2.93;;;;;;;15.10;100.00;100880.50;1375303;90;21334;-76
2023/09/04 00:47:52;;;;;;;6.27;2.63;;;;;;;15.07;100.00;100884.83;1375433;90;21431;-76
2023/09/04 00:50:22;;;;;;;4.53;2.47;;;;;;;15.10;100.00;100880.50;1380894;90;21542;-76
2023/09/04 00:52:56;;;;;;;3.22;2.75;;;;;;;15.12;100.00;100881.17;1530871;90;21327;-77
2023/09/04 00:55:23;;;;;;;4.70;2.97;;;;;;;15.15;100.00;100884.01;1530567;90;21637;-76
2023/09/04 00:57:50;;;;;;;3.33;2.70;;;;;;;15.18;100.00;100873.84;1380005;90;21379;-77
2023/09/04 01:00:21;;;;;;;7.10;2.77;;;;;;;15.25;100.00;100871.36;1378620;90;22421;-76
2023/09/04 01:02:45;;;;;;;2.80;2.30;;;;;;;15.32;100.00;100870.50;1373174;90;22318;-76
2023/09/04 01:05:11;;;;;;;5.57;2.53;;;;;;;15.35;100.00;100866.16;1361978;91;21440;-75
2023/09/04 01:07:40;;;;;;;4.97;2.47;;;;;;;15.39;100.00;100870.65;1375745;90;21438;-75
2023/09/04 01:10:09;;;;;;;3.37;2.57;;;;;;;15.40;100.00;100872.84;1372160;90;21511;-75
2023/09/04 01:12:41;;;;;;;4.30;2.60;;;;;;;15.39;100.00;100867.98;1512318;90;21445;-75
2023/09/04 01:15:09;;;;;;;2.90;2.13;;;;;;;15.32;100.00;100870.50;1377613;90;21386;-76
2023/09/04 01:17:37;;;;;;;4.37;2.67;;;;;;;15.30;100.00;100869.83;1373500;90;22215;-76
2023/09/04 01:20:23;;;;;;;5.17;2.97;;;;;;;15.27;100.00;100871.50;1359243;91;21555;-75
2023/09/04 01:22:50;;;;;;;5.17;2.80;;;;;;;15.22;100.00;100867.19;1523460;90;21386;-77
2023/09/04 01:25:16;;;;;;;6.57;2.70;;;;;;;15.21;100.00;100862.01;1380660;89;21637;-76
2023/09/04 01:27:57;;;;;;;3.73;2.50;;;;;;;15.20;100.00;100866.52;1375708;90;21357;-76
2023/09/04 01:30:33;;;;;;;3.05;2.60;;;;;;;15.16;100.00;100867.83;1530146;90;21430;-75
2023/09/04 01:33:04;;;;;;;5.83;2.50;;;;;;;15.14;100.00;100867.19;1379632;90;21467;-75
2023/09/04 01:35:32;;;;;;;3.30;2.40;;;;;;;15.14;100.00;100862.36;1530610;90;21312;-75
2023/09/04 01:37:59;;;;;;;4.67;3.30;;;;;;;15.07;100.00;100872.83;1373895;90;21363;-76
2023/09/04 01:40:25;;;;;;;7.37;2.73;;;;;;;15.07;100.00;100864.33;1363925;91;21547;-76
2023/09/04 01:42:52;;;;;;;4.30;2.73;;;;;;;15.00;100.00;100856.67;1376090;90;21327;-75
2023/09/04 01:45:18;;;;;;;4.20;2.97;;;;;;;14.94;100.00;100857.85;1375745;90;21371;-76
2023/09/04 01:47:46;;;;;;;6.23;3.10;;;;;;;14.89;100.00;100855.16;1375708;90;21334;-76
2023/09/04 01:50:12;;;;;;;8.67;3.30;;;;;;;14.89;100.00;100856.50;1365311;91;21379;-75
2023/09/04 01:52:38;;;;;;;4.93;2.70;;;;;;;14.84;100.00;100856.16;1509038;90;21616;-76
2023/09/04 01:55:05;;;;;;;5.80;3.20;;;;;;;14.79;100.00;100858.50;1375737;90;22236;-77
2023/09/04 01:57:32;;;;;;;5.10;3.00;;;;;;;14.79;100.00;100858.50;1381204;90;21349;-75
2023/09/04 01:59:58;;;;;;;3.53;2.43;;;;;;;14.76;100.00;100860.16;1403418;90;22370;-75
2023/09/04 02:02:24;;;;;;;3.77;2.90;;;;;;;14.74;100.00;100862.15;1361588;91;21371;-75
2023/09/04 02:04:50;;;;;;;3.17;2.87;;;;;;;14.72;100.00;100865.47;1375563;90;21416;-75
2023/09/04 02:07:16;;;;;;;4.07;2.80;;;;;;;14.70;100.00;100856.80;1381535;90;22437;-76
2023/09/04 02:09:42;;;;;;;6.03;3.40;;;;;;;14.66;100.00;100868.80;1375644;90;22244;-77
2023/09/04 02:12:09;;;;;;;7.80;2.77;;;;;;;14.63;100.00;100861.13;1376040;90;21357;-76
2023/09/04 02:14:35;;;;;;;5.70;3.07;;;;;;;14.62;100.00;100870.95;1375475;90;22371;-77
2023/09/04 02:17:01;;;;;;;5.50;3.63;;;;;;;14.59;100.00;100864.63;1376017;90;21371;-78
2023/09/04 02:19:27;;;;;;;6.23;3.60;;;;;;;14.59;100.00;100866.45;1376097;90;21393;-77
2023/09/04 02:21:53;;;;;;;6.43;3.87;;;;;;;14.55;100.00;100859.27;1375697;90;22230;-77
2023/09/04 02:24:20;;;;;;;3.67;2.60;;;;;;;14.54;100.00;100860.28;1389129;89;21522;-77
2023/09/04 02:26:46;;;;;;;4.53;2.90;;;;;;;14.51;100.00;100863.23;1380548;89;21377;-77
2023/09/04 02:29:12;;;;;;;5.13;3.10;;;;;;;14.49;100.00;100863.89;1385311;89;21348;-77
2023/09/04 02:31:38;;;;;;;9.13;3.77;;;;;;;14.48;100.00;100868.06;1380706;89;21349;-77
2023/09/04 02:34:04;;;;;;;4.30;3.70;;;;;;;14.41;100.00;100871.37;1386177;89;21459;-76
2023/09/04 02:36:30;;;;;;;4.67;3.37;;;;;;;14.41;100.00;100875.84;1380631;89;22362;-77
2023/09/04 02:38:56;;;;;;;5.83;3.40;;;;;;;14.37;100.00;100882.00;1380530;89;21451;-78
2023/09/04 02:41:22;;;;;;;9.00;2.73;;;;;;;14.29;100.00;100877.97;1382216;89;21378;-77
2023/09/04 02:43:49;;;;;;;4.40;2.77;;;;;;;14.28;100.00;100884.30;1378811;89;22214;-75
2023/09/04 02:46:15;;;;;;;4.40;3.20;;;;;;;14.29;100.00;100886.45;1362364;91;22392;-76
2023/09/04 02:48:41;;;;;;;7.30;3.10;;;;;;;14.29;100.00;100875.81;1380642;89;21349;-76
2023/09/04 02:51:07;;;;;;;3.90;2.80;;;;;;;14.31;100.00;100871.99;1385973;89;21348;-76
2023/09/04 02:53:33;;;;;;;6.17;3.20;;;;;;;14.33;100.00;100871.34;1380567;89;21497;-77
2023/09/04 02:56:00;;;;;;;5.43;3.50;;;;;;;14.34;100.00;100869.51;1380789;89;21378;-75
2023/09/04 02:58:26;;;;;;;5.00;3.20;;;;;;;14.36;100.00;100875.02;1361355;91;21459;-76
2023/09/04 03:00:53;;;;;;;4.57;3.13;;;;;;;14.39;100.00;100873.36;1380641;89;21422;-75
2023/09/04 03:03:19;;;;;;;5.97;3.63;;;;;;;14.41;100.00;100866.52;1380326;89;21430;-76
2023/09/04 03:05:46;;;;;;;4.47;3.07;;;;;;;14.43;100.00;100872.02;1380466;89;22200;-75
2023/09/04 03:08:13;;;;;;;5.93;3.30;;;;;;;14.45;100.00;100867.37;1385437;89;21403;-76
2023/09/04 03:10:41;;;;;;;3.70;3.37;;;;;;;14.44;100.00;100869.72;1536713;89;22208;-76
2023/09/04 03:13:07;;;;;;;6.77;3.47;;;;;;;14.43;100.00;100872.02;1378700;89;22280;-75
2023/09/04 03:15:33;;;;;;;4.87;3.70;;;;;;;14.40;100.00;100875.02;1380252;89;21356;-76
2023/09/04 03:17:59;;;;;;;4.37;3.30;;;;;;;14.39;100.00;100869.36;1367550;91;21379;-76
2023/09/04 03:20:25;;;;;;;4.60;3.57;;;;;;;14.36;100.00;100876.34;1380496;89;21482;-76
2023/09/04 03:22:53;;;;;;;4.63;3.87;;;;;;;14.33;100.00;100870.02;1380891;89;22347;-76
2023/09/04 03:25:19;;;;;;;6.20;3.00;;;;;;;14.31;100.00;100867.17;1386324;89;21561;-76
2023/09/04 03:27:45;;;;;;;9.03;3.50;;;;;;;14.28;100.00;100871.48;1380262;89;21304;-75
2023/09/04 03:30:13;;;;;;;6.40;3.60;;;;;;;14.25;100.00;100867.82;1380783;89;21401;-76
2023/09/04 03:32:39;;;;;;;6.57;3.50;;;;;;;14.28;100.00;100869.66;1379832;89;21356;-75
2023/09/04 03:35:06;;;;;;;6.50;3.30;;;;;;;14.29;100.00;100861.99;1386508;89;22302;-76
2023/09/04 03:37:36;;;;;;;5.10;3.83;;;;;;;14.28;100.00;100865.66;1379443;89;21356;-76
2023/09/04 03:40:23;;;;;;;6.70;4.77;;;;;;;14.27;100.00;100860.02;1379922;89;21541;-76
2023/09/04 03:42:51;;;;;;;6.67;3.63;;;;;;;14.25;100.00;100866.48;1377125;89;21514;-75
2023/09/04 03:45:18;;;;;;;7.30;4.67;;;;;;;14.24;100.00;100862.97;1511842;89;21518;-76
2023/09/04 03:47:46;;;;;;;5.53;4.13;;;;;;;14.22;100.00;100859.15;1380230;89;21452;-76
2023/09/04 03:50:13;;;;;;;5.27;4.13;;;;;;;14.22;100.00;100858.32;1534177;89;22221;-76
2023/09/04 03:52:40;;;;;;;6.10;4.40;;;;;;;14.22;100.00;100871.63;1385853;89;21378;-76
2023/09/04 03:55:08;;;;;;;5.13;4.37;;;;;;;14.20;100.00;100868.29;1378603;89;21371;-75
2023/09/04 03:57:39;;;;;;;6.17;4.13;;;;;;;14.19;100.00;100872.78;1378816;89;21437;-75
2023/09/04 04:00:16;;;;;;;9.40;4.70;;;;;;;14.23;100.00;100868.80;1376666;89;21415;-75
2023/09/04 04:02:44;;;;;;;5.13;4.47;;;;;;;14.24;100.00;100869.62;1531038;89;21370;-75
2023/09/04 04:05:13;;;;;;;8.77;4.50;;;;;;;14.28;100.00;100874.15;1378998;89;22177;-76
2023/09/04 04:07:40;;;;;;;5.17;4.40;;;;;;;14.29;100.00;100877.14;1536200;89;21371;-76
2023/09/04 04:10:07;;;;;;;7.77;4.53;;;;;;;14.29;100.00;100879.80;1385237;89;21567;-76
2023/09/04 04:12:34;;;;;;;10.37;4.70;;;;;;;14.31;100.00;100881.81;1379103;89;22302;-79
2023/09/04 04:15:06;;;;;;;5.13;3.77;;;;;;;14.30;100.00;100880.13;1379979;89;21518;-76
2023/09/04 04:17:35;;;;;;;8.00;5.50;;;;;;;14.32;100.00;100884.30;1377567;89;21519;-76
2023/09/04 04:20:12;;;;;;;4.83;4.33;;;;;;;14.34;100.00;100888.98;1507008;89;21490;-76
2023/09/04 04:22:42;;;;;;;6.67;4.20;;;;;;;14.34;100.00;100898.80;1536695;89;21253;-75
2023/09/04 04:25:10;;;;;;;13.45;4.33;;;;;;;14.37;100.00;100901.97;1385247;89;21253;-75
2023/09/04 04:27:36;;;;;;;4.70;3.70;;;;;;;14.40;100.00;100898.98;1524535;90;21534;-75
2023/09/04 04:30:03;;;;;;;6.97;3.93;;;;;;;14.44;100.00;100910.14;1375639;90;21276;-75
2023/09/04 04:32:29;;;;;;;8.60;4.87;;;;;;;14.48;100.00;100903.52;1374709;90;21239;-76
2023/09/04 04:34:55;;;;;;;5.43;3.70;;;;;;;14.51;100.00;100907.18;1375535;90;21409;-76
2023/09/04 04:37:21;;;;;;;7.50;3.47;;;;;;;14.55;100.00;100918.37;1381426;90;21290;-76
2023/09/04 04:39:48;;;;;;;6.03;4.17;;;;;;;14.61;100.00;100917.72;1361401;91;21557;-76
2023/09/04 04:42:14;;;;;;;5.50;3.60;;;;;;;14.64;100.00;100918.25;1375964;90;22231;-76
2023/09/04 04:44:40;;;;;;;4.90;3.33;;;;;;;14.71;100.00;100922.92;1381223;90;21380;-76
2023/09/04 04:47:07;;;;;;;6.17;3.80;;;;;;;14.74;100.00;100930.09;1530531;90;21202;-76
2023/09/04 04:49:33;;;;;;;7.93;3.80;;;;;;;14.79;100.00;100930.44;1375633;90;21283;-74
2023/09/04 04:52:00;;;;;;;5.53;3.77;;;;;;;14.84;100.00;100929.94;1375220;90;22045;-76
2023/09/04 04:54:26;;;;;;;7.13;3.57;;;;;;;14.87;100.00;100934.94;1381101;90;21424;-75
2023/09/04 04:56:52;;;;;;;6.37;2.93;;;;;;;14.93;100.00;100940.94;1375487;90;21224;-75
2023/09/04 04:59:18;;;;;;;4.20;3.40;;;;;;;15.00;100.00;100939.81;1375966;90;21319;-76
2023/09/04 05:01:45;;;;;;;6.73;3.53;;;;;;;14.98;100.00;100939.96;1361919;91;21350;-76
2023/09/04 05:04:11;;;;;;;6.20;4.13;;;;;;;14.97;100.00;100942.80;1374706;90;21394;-76
2023/09/04 05:06:38;;;;;;;4.77;3.77;;;;;;;14.98;100.00;100945.80;1375496;90;21186;-76
2023/09/04 05:09:05;;;;;;;6.03;3.37;;;;;;;15.01;100.00;100940.13;1508658;90;21387;-76
2023/09/04 05:11:31;;;;;;;6.53;3.90;;;;;;;14.96;100.00;100945.12;1379903;90;21379;-76
2023/09/04 05:13:58;;;;;;;6.90;3.50;;;;;;;14.97;100.00;100945.47;1530514;90;22208;-76
2023/09/04 05:16:26;;;;;;;6.00;3.60;;;;;;;14.96;100.00;100939.78;1375454;90;21261;-75
2023/09/04 05:18:53;;;;;;;5.50;3.57;;;;;;;14.99;100.00;100941.65;1373597;90;22369;-75
2023/09/04 05:21:20;;;;;;;4.43;3.43;;;;;;;15.04;100.00;100950.47;1379286;90;21289;-75
2023/09/04 05:23:47;;;;;;;6.30;3.93;;;;;;;15.04;100.00;100947.30;1375233;90;22222;-75
2023/09/04 05:26:14;;;;;;;5.97;2.73;;;;;;;15.10;100.00;100945.80;1381886;89;21349;-76
2023/09/04 05:28:40;;;;;;;6.33;4.07;;;;;;;15.16;100.00;100950.48;1386301;89;21394;-74
2023/09/04 05:31:07;;;;;;;5.63;3.10;;;;;;;15.22;100.00;100951.18;1513923;89;21268;-77
2023/09/04 05:33:33;;;;;;;5.90;3.13;;;;;;;15.32;100.00;100955.02;1380577;89;21238;-77
2023/09/04 05:36:00;;;;;;;5.77;3.67;;;;;;;15.40;100.00;100949.69;1362373;91;21342;-76
2023/09/04 05:38:27;;;;;;;8.50;3.73;;;;;;;15.50;100.00;100957.51;1384820;89;21282;-76
2023/09/04 05:40:54;;;;;;;4.27;3.47;;;;;;;15.53;100.00;100959.84;1380280;89;21215;-76
2023/09/04 05:43:21;;;;;;;5.67;3.70;;;;;;;15.54;100.00;100961.53;1378980;89;21231;-76
2023/09/04 05:45:48;;;;;;;12.93;3.93;;;;;;;15.50;100.00;100957.51;1379491;89;21400;-77
2023/09/04 05:48:14;;;;;;;4.57;2.47;;;;;;;15.47;100.00;100961.84;1386076;89;21238;-76
2023/09/04 05:50:40;;;;;;;4.63;3.23;;;;;;;15.47;100.00;100964.52;1362351;91;21445;-76
2023/09/04 05:53:06;;;;;;;5.03;4.30;;;;;;;15.59;100.00;100975.17;1380228;89;21253;-77
2023/09/04 05:55:37;;;;;;;6.23;2.80;;;;;;;15.72;100.00;100974.21;1380757;89;21327;-76
2023/09/04 05:58:04;;;;;;;7.63;3.40;;;;;;;15.88;100.00;100971.19;1530971;89;21416;-77
2023/09/04 06:00:30;;;;;;;9.10;3.43;;;;;;;15.95;100.00;100972.19;1380014;89;21386;-76
2023/09/04 06:02:56;;;;;;;8.60;3.20;;;;;;;16.02;100.00;100971.83;1380975;89;21334;-76
2023/09/04 06:05:24;;;;;;;4.20;3.20;;;;;;;16.16;100.00;100969.80;1380904;89;21246;-76
2023/09/04 06:07:50;;;;;;;9.53;3.47;;;;;;;16.29;100.00;100976.46;1366175;91;21364;-75
2023/09/04 06:10:16;;;;;;;6.27;3.23;;;;;;;16.37;100.00;100989.77;1362413;91;22126;-75
2023/09/04 06:12:43;;;;;;;7.80;3.23;;;;;;;16.35;100.00;100986.45;1380100;89;22259;-75
2023/09/04 06:15:10;;;;;;;11.17;3.80;;;;;;;16.33;100.00;100972.43;1380413;89;21326;-76
2023/09/04 06:17:36;;;;;;;6.70;3.43;;;;;;;16.30;100.00;100987.47;1504554;89;21290;-75
2023/09/04 06:20:03;;;;;;;4.43;2.97;;;;;;;16.32;100.00;100982.29;1380480;89;21311;-75
2023/09/04 06:22:29;;;;;;;3.80;3.17;;;;;;;16.53;100.00;100987.05;1379860;89;22133;-78
2023/09/04 06:24:55;;;;;;;4.83;3.00;;;;;;;16.68;100.00;100982.63;1380705;89;21320;-74
2023/09/04 06:27:22;;;;;;;4.55;3.00;;;;;;;16.87;100.00;100985.94;1391407;89;21518;-75
2023/09/04 06:29:48;;;;;;;4.35;3.27;;;;;;;17.02;100.00;100977.48;1380330;89;21239;-76
2023/09/04 06:32:14;;;;;;;7.28;3.12;;;;;;;17.12;100.00;100976.77;1380479;89;21408;-75
2023/09/04 06:34:41;;;;;;;6.40;3.22;;;;;;;17.30;100.00;100985.01;1362137;91;21254;-75
2023/09/04 06:37:08;;;;;;;5.08;2.27;;;;;;;17.44;100.00;100988.25;1386274;89;21400;-78
2023/09/04 06:39:34;;;;;;;5.42;2.52;;;;;;;17.62;100.00;100985.25;1380582;89;21341;-85
2023/09/04 06:42:00;;;;;;;3.20;2.33;;;;;;;17.81;100.00;100984.79;1381101;89;21260;-83
2023/09/04 06:44:29;;;;;;;6.55;3.33;;;;;;;18.01;100.00;100989.60;1381169;89;21238;-84
2023/09/04 06:46:55;;;;;;;5.08;2.60;;;;;;;18.01;100.00;100989.60;1529687;89;22351;-88
2023/09/04 06:49:21;;;;;;;2.83;2.35;;;;;;;18.09;100.00;100994.05;1380596;89;21408;-84
2023/09/04 06:51:47;;;;;;;8.43;2.60;;;;;;;18.08;100.00;100988.39;1380913;89;21298;-85
2023/09/04 06:54:14;;;;;;;5.70;2.83;;;;;;;18.08;100.00;100984.37;1362086;91;21319;-84
2023/09/04 06:56:40;;;;;;;5.00;3.30;;;;;;;18.11;100.00;100979.98;1385662;89;21319;-83
2023/09/04 06:59:06;;;;;;;6.83;2.67;;;;;;;18.17;100.00;100989.96;1461442;91;21384;-84
2023/09/04 07:01:33;;;;;;;3.95;2.87;;;;;;;18.30;100.00;100995.52;1380515;89;21260;-83
2023/09/04 07:03:59;;;;;;;8.00;3.58;;;;;;;18.43;100.00;101004.23;1385871;89;21297;-78
2023/09/04 07:06:25;;;;;;;4.35;3.17;;;;;;;18.43;100.00;100998.36;1380360;89;22238;-77
2023/09/04 07:08:53;;;;;;;5.85;3.25;;;;;;;18.39;100.00;101000.28;1509296;89;21282;-76
2023/09/04 07:11:19;;;;;;;7.45;3.02;;;;;;;18.43;100.00;100998.36;1385331;89;21664;-76
2023/09/04 07:13:45;;;;;;;3.10;2.62;;;;;;;18.42;100.00;101004.75;1380311;89;21342;-76
2023/09/04 07:16:11;;;;;;;3.83;2.50;;;;;;;18.58;100.00;101005.05;1380546;89;21304;-76
2023/09/04 07:18:38;;;;;;;3.67;2.40;;;;;;;18.65;100.00;101002.48;1380870;89;21210;-75
2023/09/04 07:21:04;;;;;;;4.92;2.67;;;;;;;18.76;100.00;101007.41;1380049;89;21408;-76
2023/09/04 07:23:30;;;;;;;4.00;2.62;;;;;;;18.87;100.00;101006.92;1380229;89;22104;-75
2023/09/04 07:25:57;;;;;;;3.52;2.20;;;;;;;18.93;100.00;101020.06;1532192;89;21290;-79
2023/09/04 07:28:23;;;;;;;5.00;2.87;;;;;;;18.93;100.00;101015.55;1374671;90;21397;-79
2023/09/04 07:30:52;;;;;;;5.00;2.80;;;;;;;19.02;100.00;101014.08;1375354;90;21386;-77
2023/09/04 07:33:18;;;;;;;7.22;2.30;;;;;;;19.19;100.00;101019.56;1529513;90;21290;-78
2023/09/04 07:35:52;;;;;;;3.08;2.77;;;;;;;19.24;100.00;101021.14;1375461;90;22104;-78
2023/09/04 07:38:18;;;;;;;3.58;2.55;;;;;;;19.25;100.00;101021.97;1372888;91;21320;-78
2023/09/04 07:40:45;;;;;;;5.00;2.15;;;;;;;19.37;100.00;101028.00;1375754;90;21534;-78
2023/09/04 07:43:11;;;;;;;3.77;2.40;;;;;;;19.46;100.00;101019.31;1375483;90;22060;-78
2023/09/04 07:45:37;;;;;;;6.85;3.02;;;;;;;19.51;100.00;101017.41;1365568;90;21401;-79
2023/09/04 07:48:04;;;;;;;7.08;2.45;;;;;;;19.63;100.00;101021.23;1371791;90;21271;-78
2023/09/04 07:50:30;;;;;;;2.77;2.42;;;;;;;19.68;100.00;101017.50;1374698;90;21271;-76
2023/09/04 07:52:56;;;;;;;12.03;2.77;;;;;;;19.74;100.00;101022.09;1375640;90;21460;-78
2023/09/04 07:55:22;;;;;;;6.72;2.67;;;;;;;19.75;100.00;101029.11;1381190;90;22186;-78
2023/09/04 07:57:48;;;;;;;2.72;2.17;;;;;;;19.75;100.00;101023.74;1375290;90;21350;-77
2023/09/04 08:00:21;;;;;;;4.55;2.80;;;;;;;19.75;100.00;101029.11;1375619;90;21445;-78
2023/09/04 08:02:43;;;;;;;3.92;2.60;;;;;;;19.93;100.00;101027.30;1372354;90;21335;-79
2023/09/04 08:05:09;;;;;;;6.37;2.87;;;;;;;20.01;100.00;101029.02;1381291;90;21402;-78
2023/09/04 08:07:36;;;;;;;6.12;2.87;;;;;;;20.19;100.00;101047.34;1530426;90;21158;-77
2023/09/04 08:10:02;;;;;;;6.55;2.35;;;;;;;20.26;100.00;101045.54;1508929;90;21320;-79
2023/09/04 08:12:28;;;;;;;3.08;2.50;;;;;;;20.34;100.00;101058.83;1375313;90;22066;-79
2023/09/04 08:14:54;;;;;;;6.03;2.95;;;;;;;20.39;100.00;101059.56;1375471;90;21239;-79
2023/09/04 08:17:21;;;;;;;3.92;2.65;;;;;;;20.43;100.00;101059.52;1366940;91;21304;-77
2023/09/04 08:19:47;;;;;;;9.05;2.30;;;;;;;20.34;100.00;101064.20;1375379;90;22184;-77
2023/09/04 08:22:13;;;;;;;4.87;2.50;;;;;;;20.35;100.00;101058.31;1361589;91;21521;-77
2023/09/04 08:24:39;;;;;;;3.22;2.52;;;;;;;20.36;100.00;101054.07;1375430;90;21268;-78
2023/09/04 08:27:05;;;;;;;10.18;3.90;;;;;;;20.42;100.00;101044.39;1518714;89;21506;-79
2023/09/04 08:29:32;;;;;;;5.80;1.95;;;;;;;20.54;100.00;101049.55;1512923;90;21143;-78
2023/09/04 08:31:58;;;;;;;5.25;2.20;;;;;;;20.53;100.00;101055.14;1375682;90;21209;-79
2023/09/04 08:34:24;;;;;;;3.85;2.60;;;;;;;20.67;100.00;101055.02;1375360;90;22067;-79
2023/09/04 08:36:50;;;;;;;2.35;2.15;;;;;;;20.67;100.00;101052.33;1375666;90;21364;-79
2023/09/04 08:39:16;;;;;;;2.40;2.05;;;;;;;20.74;100.00;101046.97;1375639;90;21312;-80
2023/09/04 08:41:43;;;;;;;4.33;2.33;;;;;;;20.78;100.00;101044.73;1375419;90;21187;-78
2023/09/04 08:44:09;;;;;;;6.08;2.50;;;;;;;20.88;100.00;101044.66;1361091;91;21602;-79
2023/09/04 08:46:36;;;;;;;3.50;2.15;;;;;;;21.04;100.00;101035.94;1508557;90;21505;-81
2023/09/04 08:49:03;;;;;;;8.00;2.37;;;;;;;21.09;100.00;101039.69;1366108;90;22120;-79
2023/09/04 08:51:30;;;;;;;2.55;2.00;;;;;;;21.00;100.00;101040.87;1530577;90;21186;-77
2023/09/04 08:53:57;;;;;;;6.55;2.60;;;;;;;21.02;100.00;101057.66;1374162;90;21239;-79
2023/09/04 08:56:24;;;;;;;7.58;2.20;;;;;;;21.26;100.00;101039.30;1375133;90;22230;-79
2023/09/04 08:58:51;;;;;;;3.10;2.10;;;;;;;21.27;100.00;101045.02;1373840;90;21333;-78
2023/09/04 09:01:19;;;;;;;4.90;2.52;;;;;;;21.29;100.00;101037.55;1381500;90;21297;-78
2023/09/04 09:03:46;;;;;;;3.12;2.55;;;;;;;21.45;100.00;101029.66;1530490;90;21378;-78
2023/09/04 09:06:12;;;;;;;5.92;2.67;;;;;;;21.41;100.00;101027.89;1361181;91;21320;-78
2023/09/04 09:08:38;;;;;;;5.20;2.30;;;;;;;21.63;100.00;101032.05;1375591;90;21312;-78
2023/09/04 09:11:05;;;;;;;6.05;2.15;;;;;;;21.79;100.00;101029.48;1367114;90;22340;-78
2023/09/04 09:13:31;;;;;;;2.87;2.40;;;;;;;21.85;100.00;101045.34;1530501;90;21158;-77
2023/09/04 09:15:57;;;;;;;2.77;2.15;;;;;;;21.87;100.00;101043.28;1375234;90;21327;-79
2023/09/04 09:18:42;;;;;;;10.90;2.52;;;;;;;21.88;100.00;101047.62;1526250;90;21297;-80
2023/09/04 09:21:34;;;;;;;9.40;2.70;;;;;;;21.98;100.00;101037.27;1371725;90;21327;-78
2023/09/04 09:24:19;;;;;;;5.33;2.58;;;;;;;22.09;100.00;101036.61;1530507;90;21247;-78
2023/09/04 09:26:49;;;;;;;2.60;1.95;;;;;;;22.15;100.00;101030.90;1374794;90;21628;-80
2023/09/04 09:29:17;;;;;;;2.30;1.97;;;;;;;22.15;100.00;101039.52;1372443;90;21379;-79
2023/09/04 09:31:45;;;;;;;9.18;2.55;;;;;;;22.12;100.00;101025.93;1373797;90;22253;-80
2023/09/04 09:34:12;;;;;;;2.90;2.10;;;;;;;22.04;100.00;101033.73;1379144;90;21327;-80
2023/09/04 09:36:39;;;;;;;5.72;2.90;;;;;;;22.10;100.00;101037.46;1374772;90;21253;-80
2023/09/04 09:39:06;;;;;;;4.75;2.55;;;;;;;22.22;100.00;101045.77;1375598;90;21327;-79
2023/09/04 09:41:33;;;;;;;3.50;2.47;;;;;;;22.18;100.00;101045.86;1374766;90;22088;-79
2023/09/04 09:44:03;;;;;;;4.25;2.47;;;;;;;22.24;100.00;101035.09;1365904;90;21260;-80
2023/09/04 09:46:30;;;;;;;3.27;1.92;;;;;;;22.34;100.00;101036.52;1371404;91;21297;-81
2023/09/04 09:48:58;;;;;;;3.12;2.17;;;;;;;22.33;100.00;101040.23;1527041;90;21383;-79
2023/09/04 09:51:24;;;;;;;3.15;2.45;;;;;;;22.37;100.00;101038.80;1373899;90;21304;-80
2023/09/04 09:53:52;;;;;;;8.15;2.15;;;;;;;22.29;100.00;101038.49;1375069;90;22312;-80
2023/09/04 09:56:20;;;;;;;4.80;2.30;;;;;;;22.51;100.00;101038.55;1378958;90;21231;-79
2023/09/04 09:58:49;;;;;;;5.95;2.77;;;;;;;22.53;100.00;101034.31;1374154;90;21382;-79
2023/09/04 10:01:17;;;;;;;4.83;2.70;;;;;;;22.70;100.00;101034.64;1376651;90;22118;-80
2023/09/04 10:03:46;;;;;;;4.30;2.58;;;;;;;22.85;100.00;101041.16;1530472;90;21309;-79
2023/09/04 10:06:33;;;;;;;2.65;1.98;;;;;;;23.03;100.00;101037.78;1372818;90;21239;-79
2023/09/04 10:08:54;;;;;;;4.50;2.25;;;;;;;23.25;100.00;101031.02;1376538;91;21489;-80
2023/09/04 10:11:22;;;;;;;3.65;2.22;;;;;;;23.36;100.00;101026.78;1381225;90;22119;-80
2023/09/04 10:14:06;;;;;;;7.75;2.17;;;;;;;23.40;100.00;101030.19;1528311;90;21304;-80
2023/09/04 10:16:53;;;;;;;2.45;2.22;;;;;;;23.20;100.00;101032.19;1375442;91;21290;-79
2023/09/04 10:19:23;;;;;;;3.12;2.35;;;;;;;23.20;100.00;101022.73;1372050;92;22369;-80
2023/09/04 10:21:53;;;;;;;;;;;;;;;23.28;100.00;101015.73;1531891;90;21312;-79
2023/09/04 10:24:24;;;;;;;2.92;2.00;;;;;;;23.35;100.00;101012.45;1366958;92;20770;-80
2023/09/04 10:27:02;;;;;;;7.22;2.55;;;;;;;23.54;100.00;101007.97;1372074;91;21313;-79
2023/09/04 10:29:31;;;;;;;3.10;2.02;;;;;;;23.51;100.00;101019.22;1532719;89;21534;-79
2023/09/04 10:31:59;;;;;;;2.47;2.27;;;;;;;23.23;100.00;101018.25;1378100;89;21401;-80
2023/09/04 10:34:26;;;;;;;7.22;2.52;;;;;;;23.38;100.00;101022.81;1366120;91;21304;-80
2023/09/04 10:36:53;;;;;;;6.67;2.62;;;;;;;23.45;100.00;101015.19;1379302;89;21319;-80
2023/09/04 10:39:20;;;;;;;3.00;2.08;;;;;;;23.18;100.00;101012.66;1379650;89;21321;-76
2023/09/04 10:41:47;;;;;;;2.00;1.80;;;;;;;23.13;100.00;101009.78;1379345;89;22125;-77
2023/09/04 10:44:45;;;;;;;2.10;1.90;;;;;;;23.09;100.00;101011.27;1380558;89;21246;-79
2023/09/04 10:47:13;;;;;;;4.65;1.87;;;;;;;23.28;100.00;101016.27;1399191;90;22192;-77
2023/09/04 10:49:41;;;;;;;3.17;1.87;;;;;;;23.48;100.00;101021.50;1379344;89;21216;-79
2023/09/04 10:52:08;;;;;;;2.80;2.17;;;;;;;23.55;100.00;101025.00;1534253;89;21385;-80
2023/09/04 10:54:34;;;;;;;3.40;1.60;;;;;;;23.26;100.00;101023.22;1379831;89;21297;-81
2023/09/04 10:57:11;;;;;;;2.08;1.77;;;;;;;23.06;100.00;101023.33;1380658;89;22111;-79
2023/09/04 10:59:56;;;;;;;4.00;1.90;;;;;;;23.16;100.00;101018.80;1473200;89;21349;-80
2023/09/04 11:02:32;;;;;;;2.27;2.08;;;;;;;23.32;100.00;101018.29;1377295;89;21389;-78
2023/09/04 11:05:02;;;;;;;4.53;2.15;;;;;;;23.50;100.00;101013.48;1377925;89;22138;-80
2023/09/04 11:07:34;;;;;;;3.08;2.02;;;;;;;23.72;100.00;101008.59;1513771;89;22244;-79
2023/09/04 11:10:13;;;;;;;4.58;2.17;;;;;;;23.72;99.59;101012.64;1513834;89;22141;-79
2023/09/04 11:12:44;;;;;;;8.18;3.08;;;;;;;23.70;99.10;101023.33;1536778;89;21246;-80
2023/09/04 11:15:14;;;;;;;3.85;2.22;;;;;;;23.90;100.00;101019.14;1376212;90;22176;-78
2023/09/04 11:17:47;;;;;;;3.25;2.02;;;;;;;24.21;100.00;101015.53;1382636;89;21304;-79
2023/09/04 11:20:15;;;;;;;4.62;1.60;;;;;;;24.09;79.44;101004.62;1376379;91;22192;-80